Terminal Aerodrome Forecast
Issued by NWS

Home | Current Version | Previous Version | Text Only | Print | Product List | Glossary On
Versions: 1 2 3 4 5 6 7 8 9 10 11 12 13 14
000
FTUS43 KGRB 182339
TAFATW
TAF
KATW 182339Z 1900/1924 27005KT P6SM SCT250
     FM190800 28004KT 5SM BR SCT250
     FM191400 VRB03KT P6SM SCT200
     FM192300 09004KT 6SM BR SCT150=

USA.gov is the U.S. government's official web portal to all federal, state and local government web resources and services.